Time;durP1;ratioP1;P1;durP2;ratioP2;P2;SDS_P1;SDS_P2;PMS_P1;PMS_P2;Temp;Humidity;BMP_temperature;BMP_pressure;BME280_temperature;BME280_humidity;BME280_pressure;Samples;Min_cycle;Max_cycle;Signal;HPM_P1;HPM_P2
2022/02/16 00:01:38;;;;;;;12.25;9.23;;;;;;;8.10;100.00;100298.50;5086742;28;20028;-78
2022/02/16 00:04:03;;;;;;;19.20;9.80;;;;;;;8.14;100.00;100285.44;5070358;28;20068;-77
2022/02/16 00:06:29;;;;;;;17.83;10.02;;;;;;;8.07;100.00;100300.16;5086823;28;20115;-78
2022/02/16 00:08:54;;;;;;;21.45;9.57;;;;;;;8.04;100.00;100290.50;5082779;28;20476;-77
2022/02/16 00:11:20;;;;;;;18.75;10.25;;;;;;;8.05;100.00;100294.91;5066033;28;20028;-78
2022/02/16 00:13:45;;;;;;;13.43;9.25;;;;;;;8.06;100.00;100287.94;5087346;28;20024;-79
2022/02/16 00:16:11;;;;;;;16.52;9.88;;;;;;;8.03;100.00;100278.28;5082548;28;20103;-78
2022/02/16 00:18:36;;;;;;;17.65;9.88;;;;;;;8.03;100.00;100269.53;5066856;28;20029;-78
2022/02/16 00:21:03;;;;;;;17.63;9.02;;;;;;;8.05;100.00;100271.31;5075792;28;20032;-77
2022/02/16 00:23:29;;;;;;;15.35;9.43;;;;;;;8.03;100.00;100275.66;5064474;28;20090;-77
2022/02/16 00:25:55;;;;;;;18.70;10.43;;;;;;;8.03;100.00;100265.19;5067128;28;20119;-77
2022/02/16 00:28:21;;;;;;;16.05;10.35;;;;;;;8.03;100.00;100266.91;5080812;28;20039;-77
2022/02/16 00:30:46;;;;;;;15.90;9.77;;;;;;;8.02;100.00;100258.19;5084315;28;20048;-77
2022/02/16 00:33:12;;;;;;;18.48;10.60;;;;;;;8.02;100.00;100258.19;5077301;28;20487;-78
2022/02/16 00:35:38;;;;;;;19.13;10.20;;;;;;;8.01;100.00;100245.91;5061480;28;20028;-77
2022/02/16 00:38:04;;;;;;;15.60;9.00;;;;;;;8.05;100.00;100250.34;5081243;28;20058;-77
2022/02/16 00:40:29;;;;;;;19.35;9.75;;;;;;;7.99;100.00;100247.66;5078023;28;20059;-77
2022/02/16 00:42:54;;;;;;;16.13;8.90;;;;;;;7.99;100.00;100236.28;5060563;28;20017;-77
2022/02/16 00:45:20;;;;;;;27.65;10.88;;;;;;;8.03;100.00;100236.38;5082119;28;20178;-78
2022/02/16 00:47:47;;;;;;;19.52;8.82;;;;;;;7.98;100.00;100222.31;5055163;28;20029;-77
2022/02/16 00:50:12;;;;;;;21.17;9.57;;;;;;;7.97;100.00;100217.91;5058346;28;20372;-77
2022/02/16 00:52:38;;;;;;;20.38;8.65;;;;;;;7.97;100.00;100217.91;5060969;28;20028;-77
2022/02/16 00:55:04;;;;;;;19.17;9.75;;;;;;;7.95;100.00;100203.91;5092430;28;20399;-77
2022/02/16 00:57:30;;;;;;;16.42;8.43;;;;;;;7.97;100.00;100196.94;5079008;28;20016;-76
2022/02/16 00:59:55;;;;;;;18.88;8.60;;;;;;;7.95;100.00;100193.44;5094144;28;20027;-77
2022/02/16 01:02:20;;;;;;;26.40;9.85;;;;;;;7.96;100.00;100189.94;5086381;28;20024;-76
2022/02/16 01:04:46;;;;;;;21.08;8.27;;;;;;;7.89;100.00;100182.84;5089535;28;20031;-77
2022/02/16 01:07:11;;;;;;;24.98;8.38;;;;;;;7.88;100.00;100173.22;5111560;28;20099;-78
2022/02/16 01:09:36;;;;;;;19.42;7.72;;;;;;;7.86;100.00;100177.56;5100917;28;20055;-78
2022/02/16 01:12:02;;;;;;;20.92;6.88;;;;;;;7.89;100.00;100174.97;5078578;28;20024;-78
2022/02/16 01:14:27;;;;;;;22.35;8.00;;;;;;;7.88;100.00;100165.34;5086684;28;20036;-78
2022/02/16 01:16:53;;;;;;;27.42;6.55;;;;;;;7.85;100.00;100171.41;5096450;28;20036;-77
2022/02/16 01:19:19;;;;;;;21.35;6.68;;;;;;;7.89;100.00;100161.88;5099698;28;20042;-77
2022/02/16 01:21:44;;;;;;;21.90;6.60;;;;;;;7.89;100.00;100154.03;5101975;28;20146;-78
2022/02/16 01:24:09;;;;;;;17.02;6.20;;;;;;;7.93;100.00;100153.22;5099032;28;20028;-77
2022/02/16 01:26:35;;;;;;;25.83;8.45;;;;;;;7.88;100.00;100137.44;5085389;28;20080;-78
2022/02/16 01:29:00;;;;;;;25.38;7.32;;;;;;;7.91;100.00;100139.22;5095091;28;20028;-77
2022/02/16 01:31:25;;;;;;;18.08;7.55;;;;;;;7.89;100.00;100118.22;5080483;28;20183;-77
2022/02/16 01:33:51;;;;;;;23.23;7.93;;;;;;;7.92;100.00;100115.69;5080186;28;20028;-77
2022/02/16 01:36:16;;;;;;;22.73;8.48;;;;;;;7.93;100.00;100117.44;5100941;28;20019;-77
2022/02/16 01:38:41;;;;;;;27.48;8.13;;;;;;;7.94;100.00;100113.06;5099515;28;20055;-77
2022/02/16 01:41:07;;;;;;;25.67;7.78;;;;;;;8.00;100.00;100112.28;5079387;28;20028;-77
2022/02/16 01:43:32;;;;;;;30.80;10.63;;;;;;;7.99;100.00;100095.69;5081937;28;20024;-76
2022/02/16 01:45:59;;;;;;;38.75;9.55;;;;;;;8.03;100.00;100089.63;5099824;28;20074;-77
2022/02/16 01:48:25;;;;;;;32.28;11.07;;;;;;;8.09;100.00;100081.84;5105737;28;20437;-76
2022/02/16 01:50:51;;;;;;;33.13;10.57;;;;;;;8.09;100.00;100086.22;5106251;28;20024;-76
2022/02/16 01:53:16;;;;;;;37.42;9.50;;;;;;;8.14;100.00;100078.41;5094866;28;20024;-77
2022/02/16 01:55:41;;;;;;;35.55;9.68;;;;;;;8.20;100.00;100073.28;5095443;28;20349;-77
2022/02/16 01:58:08;;;;;;;35.03;9.38;;;;;;;8.20;100.00;100073.28;5079551;28;20023;-77
2022/02/16 02:00:34;;;;;;;32.72;9.40;;;;;;;8.19;100.00;100061.91;5110091;28;20577;-77
2022/02/16 02:02:59;;;;;;;31.00;9.20;;;;;;;8.19;100.00;100064.53;5100632;28;20102;-76
2022/02/16 02:05:24;;;;;;;41.53;10.27;;;;;;;8.18;100.00;100060.16;5097025;28;20131;-76
2022/02/16 02:07:50;;;;;;;39.15;10.38;;;;;;;8.18;100.00;100051.38;5084895;28;20384;-78
2022/02/16 02:10:15;;;;;;;39.60;10.93;;;;;;;8.18;100.00;100054.00;5086006;28;20493;-77
2022/02/16 02:12:46;;;;;;;28.92;11.13;;;;;;;8.19;100.00;100048.81;5103327;28;20024;-78
2022/02/16 02:15:11;;;;;;;25.30;11.85;;;;;;;8.19;100.00;100050.53;5106239;28;20027;-77
2022/02/16 02:17:37;;;;;;;31.75;12.60;;;;;;;8.17;100.00;100036.56;5083488;28;20028;-78
2022/02/16 02:20:04;;;;;;;31.35;12.65;;;;;;;8.20;100.00;100031.34;5094586;28;20024;-76
2022/02/16 02:22:29;;;;;;;32.95;13.93;;;;;;;8.19;100.00;100034.81;5076736;28;20024;-77
2022/02/16 02:24:55;;;;;;;28.88;12.90;;;;;;;8.21;100.00;100038.34;5100981;28;20015;-77
2022/02/16 02:27:20;;;;;;;41.25;14.80;;;;;;;8.21;100.00;100025.25;5083247;28;20113;-77
2022/02/16 02:29:46;;;;;;;34.33;14.45;;;;;;;8.24;100.00;100022.66;5099936;28;20088;-77
2022/02/16 02:32:16;;;;;;;29.00;12.60;;;;;;;8.24;100.00;100034.00;5079695;28;20061;-77
2022/02/16 02:34:41;;;;;;;34.58;13.65;;;;;;;8.22;100.00;100024.38;5094283;28;20034;-75
2022/02/16 02:37:07;;;;;;;31.52;12.75;;;;;;;8.25;100.00;100019.19;5075861;28;20110;-76
2022/02/16 02:39:32;;;;;;;35.97;14.48;;;;;;;8.24;100.00;100013.03;5081874;28;20040;-76
2022/02/16 02:41:57;;;;;;;41.95;14.55;;;;;;;8.22;100.00;100012.16;5103786;28;20027;-76
2022/02/16 02:44:23;;;;;;;36.85;14.85;;;;;;;8.21;100.00;99996.41;5097097;28;20024;-76
2022/02/16 02:46:48;;;;;;;33.03;13.43;;;;;;;8.24;100.00;99991.22;5097714;28;20036;-76
2022/02/16 02:49:13;;;;;;;31.05;13.30;;;;;;;8.24;100.00;99978.09;5096094;28;20066;-76
2022/02/16 02:51:39;;;;;;;25.67;13.88;;;;;;;8.25;100.00;99975.50;5098021;28;20027;-77
2022/02/16 02:54:04;;;;;;;32.15;15.68;;;;;;;8.27;100.00;99965.03;5075119;28;20031;-77
2022/02/16 02:56:29;;;;;;;31.60;16.95;;;;;;;8.27;100.00;99960.69;5104013;28;20509;-76
2022/02/16 02:58:55;;;;;;;35.97;17.85;;;;;;;8.26;100.00;99955.41;5102063;28;20463;-76
2022/02/16 03:01:20;;;;;;;30.00;16.25;;;;;;;8.28;100.00;99967.66;5083274;28;20098;-77
2022/02/16 03:03:45;;;;;;;30.30;17.45;;;;;;;8.31;100.00;99955.47;5102119;28;20503;-77
2022/02/16 03:06:11;;;;;;;27.25;15.55;;;;;;;8.37;100.00;99966.91;5103822;28;20030;-77
2022/02/16 03:08:38;;;;;;;29.30;15.10;;;;;;;8.36;100.00;99959.91;5088383;28;20055;-76
2022/02/16 03:11:04;;;;;;;29.13;16.15;;;;;;;8.37;100.00;99948.56;5100316;28;20096;-80
2022/02/16 03:13:29;;;;;;;24.58;15.32;;;;;;;8.38;100.00;99947.69;5104226;28;20226;-77
2022/02/16 03:15:55;;;;;;;27.77;14.07;;;;;;;8.39;100.00;99938.06;5076432;28;20016;-78
2022/02/16 03:18:21;;;;;;;23.00;14.07;;;;;;;8.41;100.00;99932.00;5102330;28;20519;-77
2022/02/16 03:20:51;;;;;;;20.90;13.65;;;;;;;8.41;100.00;99921.50;5078364;28;20032;-77
2022/02/16 03:23:16;;;;;;;27.55;14.80;;;;;;;8.46;100.00;99923.31;5099938;28;20038;-77
2022/02/16 03:25:42;;;;;;;23.52;13.48;;;;;;;8.40;100.00;99909.25;5089073;28;20448;-76
2022/02/16 03:28:08;;;;;;;22.98;13.57;;;;;;;8.47;100.00;99909.38;5097043;28;20420;-77
2022/02/16 03:30:34;;;;;;;18.70;12.57;;;;;;;8.47;100.00;99904.13;5108625;28;20080;-77
2022/02/16 03:33:04;;;;;;;17.27;11.75;;;;;;;8.48;100.00;99882.25;5080672;28;20384;-78
2022/02/16 03:35:31;;;;;;;16.88;11.68;;;;;;;8.54;100.00;99874.47;5109771;28;20031;-77
2022/02/16 03:37:56;;;;;;;16.30;11.25;;;;;;;8.49;100.00;99855.19;5084295;28;20468;-76
2022/02/16 03:40:22;;;;;;;14.40;10.27;;;;;;;8.48;100.00;99869.16;5094791;28;20024;-77
2022/02/16 03:42:48;;;;;;;10.00;8.88;;;;;;;8.52;100.00;99868.31;5084661;28;20032;-78
2022/02/16 03:45:13;;;;;;;12.27;8.80;;;;;;;8.48;100.00;99848.19;5097643;28;20148;-78
2022/02/16 03:47:39;;;;;;;13.40;8.75;;;;;;;8.48;100.00;99862.19;5080706;28;20500;-79
2022/02/16 03:50:05;;;;;;;10.68;7.18;;;;;;;8.49;100.00;99852.56;5081240;28;20034;-79
2022/02/16 03:52:30;;;;;;;9.05;6.75;;;;;;;8.49;100.00;99845.59;5097414;28;20032;-79
2022/02/16 03:54:55;;;;;;;10.68;6.15;;;;;;;8.49;100.00;99840.34;5097951;28;20141;-78
2022/02/16 03:57:21;;;;;;;7.57;5.65;;;;;;;8.46;100.00;99834.19;5094815;28;20036;-78
2022/02/16 03:59:46;;;;;;;7.13;5.45;;;;;;;8.47;100.00;99820.22;5085190;28;20035;-77
2022/02/16 04:02:12;;;;;;;7.32;5.18;;;;;;;8.44;100.00;99823.66;5077536;28;20031;-78
2022/02/16 04:04:37;;;;;;;6.60;5.13;;;;;;;8.48;100.00;99822.84;5076726;28;20525;-77
2022/02/16 04:07:03;;;;;;;8.98;5.55;;;;;;;8.47;100.00;99810.59;5093996;28;20020;-78
2022/02/16 04:09:28;;;;;;;9.57;5.85;;;;;;;8.53;100.00;99801.91;5097831;28;20046;-78
2022/02/16 04:11:53;;;;;;;9.48;6.18;;;;;;;8.54;100.00;99806.28;5103153;28;20035;-79
2022/02/16 04:14:19;;;;;;;7.85;6.55;;;;;;;8.53;100.00;99788.78;5098092;28;20020;-79
2022/02/16 04:16:46;;;;;;;8.88;6.63;;;;;;;8.51;100.00;99774.81;5106072;28;20037;-79
2022/02/16 04:19:12;;;;;;;8.45;6.78;;;;;;;8.51;100.00;99774.81;5084989;28;20373;-79
2022/02/16 04:21:37;;;;;;;8.60;6.72;;;;;;;8.50;100.00;99757.31;5104041;28;20043;-79
2022/02/16 04:24:03;;;;;;;8.30;6.93;;;;;;;8.49;100.00;99760.81;5105464;28;20091;-78
2022/02/16 04:26:28;;;;;;;9.95;7.72;;;;;;;8.51;100.00;99764.31;5097677;28;20035;-79
2022/02/16 04:28:53;;;;;;;10.20;8.13;;;;;;;8.46;100.00;99764.28;5081426;28;20103;-78
2022/02/16 04:31:19;;;;;;;10.98;8.30;;;;;;;8.43;100.00;99757.22;5097530;28;20024;-79
2022/02/16 04:33:44;;;;;;;11.70;9.20;;;;;;;8.44;100.00;99743.25;5097318;28;20096;-78
2022/02/16 04:36:09;;;;;;;15.32;10.27;;;;;;;8.40;100.00;99725.75;5097418;28;20023;-78
2022/02/16 04:38:35;;;;;;;11.77;9.05;;;;;;;8.33;100.00;99723.97;5083020;28;20028;-76
2022/02/16 04:41:00;;;;;;;12.27;9.30;;;;;;;8.35;100.00;99732.69;5104299;28;20060;-75
2022/02/16 04:43:25;;;;;;;13.73;11.00;;;;;;;8.32;100.00;99708.22;5104075;28;20099;-75
2022/02/16 04:45:51;;;;;;;14.52;11.05;;;;;;;8.36;100.00;99720.50;5079265;28;20051;-76
2022/02/16 04:48:17;;;;;;;15.23;11.77;;;;;;;8.33;100.00;99689.88;5099425;28;20038;-76
2022/02/16 04:50:42;;;;;;;19.85;11.13;;;;;;;8.36;100.00;99679.41;5088799;28;20036;-77
2022/02/16 04:53:08;;;;;;;15.10;11.45;;;;;;;8.34;100.00;99678.53;5100591;28;20383;-76
2022/02/16 04:55:33;;;;;;;14.10;11.48;;;;;;;8.35;100.00;99674.16;5089277;28;20060;-78
2022/02/16 04:57:59;;;;;;;14.82;11.55;;;;;;;8.35;100.00;99648.81;5062254;28;20107;-77
2022/02/16 05:00:25;;;;;;;15.65;11.90;;;;;;;8.34;100.00;99673.31;5078581;28;20085;-78
2022/02/16 05:02:51;;;;;;;15.18;11.18;;;;;;;8.37;100.00;99673.31;5082190;28;20024;-78
2022/02/16 05:05:16;;;;;;;12.40;10.32;;;;;;;8.40;100.00;99659.34;5079316;28;20082;-78
2022/02/16 05:07:41;;;;;;;13.05;10.15;;;;;;;8.39;100.00;99665.47;5086670;28;20043;-76
2022/02/16 05:10:08;;;;;;;12.40;9.85;;;;;;;8.40;100.00;99652.34;5066712;28;20025;-77
2022/02/16 05:12:35;;;;;;;11.43;9.45;;;;;;;8.43;100.00;99655.00;5064851;28;20111;-78
2022/02/16 05:15:01;;;;;;;11.30;9.10;;;;;;;8.42;100.00;99634.91;5076667;28;20047;-77
2022/02/16 05:17:27;;;;;;;10.82;7.93;;;;;;;8.44;100.00;99651.50;5081017;28;20438;-77
2022/02/16 05:19:52;;;;;;;13.00;9.10;;;;;;;8.44;100.00;99637.53;5083270;28;20023;-78
2022/02/16 05:22:18;;;;;;;9.48;7.65;;;;;;;8.50;100.00;99653.31;5085867;28;20081;-78
2022/02/16 05:24:43;;;;;;;10.77;8.48;;;;;;;8.50;100.00;99621.84;5078349;28;20068;-78
2022/02/16 05:27:08;;;;;;;12.38;9.52;;;;;;;8.51;100.00;99635.84;5088100;28;20031;-78
2022/02/16 05:29:34;;;;;;;12.07;9.70;;;;;;;8.55;100.00;99604.41;5069551;28;20369;-77
2022/02/16 05:31:59;;;;;;;11.20;8.90;;;;;;;8.59;100.00;99610.56;5058049;28;20032;-78
2022/02/16 05:34:24;;;;;;;11.25;9.25;;;;;;;8.60;100.00;99592.19;5068704;28;20222;-78
2022/02/16 05:36:52;;;;;;;10.27;8.68;;;;;;;8.62;100.00;99589.56;5091134;28;20141;-78
2022/02/16 05:39:17;;;;;;;12.90;9.00;;;;;;;8.64;100.00;99565.97;5063278;28;20055;-78
2022/02/16 05:41:43;;;;;;;13.07;9.88;;;;;;;8.69;100.00;99572.13;5083080;28;20017;-78
2022/02/16 05:44:08;;;;;;;10.68;8.80;;;;;;;8.71;100.00;99563.41;5058286;28;20410;-78
2022/02/16 05:46:34;;;;;;;9.38;8.40;;;;;;;8.73;100.00;99561.63;5074664;28;20032;-78
2022/02/16 05:48:59;;;;;;;9.85;7.80;;;;;;;8.74;100.00;99544.19;5060646;28;20429;-78
2022/02/16 05:51:24;;;;;;;10.40;8.52;;;;;;;8.76;100.00;99551.19;5082600;28;20071;-77
2022/02/16 05:53:50;;;;;;;8.20;7.32;;;;;;;8.77;100.00;99566.03;5061553;28;20033;-77
2022/02/16 05:56:15;;;;;;;10.15;6.40;;;;;;;8.78;100.00;99549.41;5057616;28;20484;-76
2022/02/16 05:58:40;;;;;;;7.43;5.93;;;;;;;8.85;100.00;99562.56;5064041;28;20126;-77
2022/02/16 06:01:06;;;;;;;6.10;5.22;;;;;;;8.85;100.00;99538.97;5059895;28;20395;-77
2022/02/16 06:03:31;;;;;;;8.25;5.50;;;;;;;8.86;100.00;99530.22;5078777;28;20020;-77
2022/02/16 06:05:57;;;;;;;6.35;5.00;;;;;;;8.84;100.00;99553.81;5065422;28;20044;-77
2022/02/16 06:08:22;;;;;;;6.22;4.78;;;;;;;8.87;100.00;99537.19;5062571;28;20815;-79
2022/02/16 06:10:48;;;;;;;7.47;4.65;;;;;;;8.91;100.00;99562.56;5080988;28;20032;-78
2022/02/16 06:13:14;;;;;;;6.20;3.47;;;;;;;8.92;100.00;99545.97;5060333;28;20645;-77
2022/02/16 06:15:40;;;;;;;10.20;3.70;;;;;;;8.90;100.00;99539.84;5086570;28;20054;-74
2022/02/16 06:18:06;;;;;;;5.00;4.00;;;;;;;8.93;100.00;99542.47;5057918;28;20028;-75
2022/02/16 06:20:31;;;;;;;4.40;3.67;;;;;;;8.96;100.00;99546.84;5066799;28;20055;-74
2022/02/16 06:22:57;;;;;;;4.35;3.92;;;;;;;8.97;100.00;99548.59;5056983;28;20416;-74
2022/02/16 06:25:23;;;;;;;4.55;3.33;;;;;;;8.96;100.00;99531.97;5066157;28;20456;-76
2022/02/16 06:27:49;;;;;;;6.22;3.80;;;;;;;9.00;100.00;99549.47;5066952;28;20027;-74
2022/02/16 06:30:15;;;;;;;6.38;4.07;;;;;;;8.99;100.00;99531.97;5052437;28;20044;-74
2022/02/16 06:32:42;;;;;;;6.93;4.50;;;;;;;9.01;100.00;99530.25;5076359;28;20476;-75
2022/02/16 06:35:08;;;;;;;7.28;5.00;;;;;;;9.04;100.00;99538.09;5080500;28;20036;-76
2022/02/16 06:37:33;;;;;;;9.20;5.40;;;;;;;9.04;100.00;99543.34;5077295;28;20038;-76
2022/02/16 06:39:58;;;;;;;7.82;6.00;;;;;;;9.05;100.00;99558.25;5080922;28;20039;-76
2022/02/16 06:42:24;;;;;;;7.15;5.40;;;;;;;9.08;100.00;99542.50;5059585;28;20485;-75
2022/02/16 06:44:49;;;;;;;9.95;6.18;;;;;;;9.08;100.00;99555.59;5065453;28;20024;-74
2022/02/16 06:47:14;;;;;;;9.93;5.53;;;;;;;9.09;100.00;99554.75;5079478;28;20173;-76
2022/02/16 06:49:40;;;;;;;8.95;5.30;;;;;;;9.14;100.00;99549.50;5078385;28;20102;-76
2022/02/16 06:52:05;;;;;;;6.15;5.07;;;;;;;9.17;100.00;99577.50;5082293;28;20043;-76
2022/02/16 06:54:34;;;;;;;6.22;4.60;;;;;;;9.19;100.00;99546.88;5075161;28;20044;-74
2022/02/16 06:57:00;;;;;;;7.38;4.47;;;;;;;9.22;100.00;99557.38;5100939;28;20050;-74
2022/02/16 06:59:25;;;;;;;8.48;4.85;;;;;;;9.25;100.00;99554.75;5100354;28;20041;-74
2022/02/16 07:01:51;;;;;;;7.65;4.20;;;;;;;9.28;100.00;99544.28;5103634;28;20036;-76
2022/02/16 07:04:16;;;;;;;9.05;5.30;;;;;;;9.32;100.00;99545.13;5094420;28;20069;-76
2022/02/16 07:06:42;;;;;;;9.88;4.95;;;;;;;9.37;100.00;99565.28;5055367;28;20437;-76
2022/02/16 07:09:08;;;;;;;7.28;4.75;;;;;;;9.43;100.00;99565.28;5083991;28;20063;-77
2022/02/16 07:11:34;;;;;;;14.13;7.20;;;;;;;9.45;100.00;99541.66;5098048;28;20078;-76
2022/02/16 07:13:59;;;;;;;9.18;4.80;;;;;;;9.48;100.00;99562.63;5088523;28;20019;-76
2022/02/16 07:16:25;;;;;;;10.43;5.72;;;;;;;9.50;100.00;99570.56;5100486;28;20023;-78
2022/02/16 07:18:50;;;;;;;16.10;7.35;;;;;;;9.53;100.00;99575.78;5087115;28;20036;-77
2022/02/16 07:21:16;;;;;;;17.05;7.75;;;;;;;9.61;100.00;99567.03;5096317;28;20028;-75
2022/02/16 07:23:46;;;;;;;18.42;6.60;;;;;;;9.66;100.00;99559.16;5079796;28;20035;-76
2022/02/16 07:26:11;;;;;;;17.52;7.05;;;;;;;9.68;100.00;99565.28;5076037;28;20484;-77
2022/02/16 07:28:37;;;;;;;13.15;6.78;;;;;;;9.72;100.00;99551.25;5081225;28;20119;-76
2022/02/16 07:31:02;;;;;;;15.38;7.03;;;;;;;9.75;100.00;99561.78;5082013;28;20019;-76
2022/02/16 07:33:28;;;;;;;15.20;7.13;;;;;;;9.81;100.00;99575.75;5101672;28;20488;-75
2022/02/16 07:35:53;;;;;;;15.38;6.32;;;;;;;9.84;100.00;99576.66;5085550;28;20520;-76
2022/02/16 07:38:18;;;;;;;17.80;6.93;;;;;;;9.90;100.00;99571.41;5083169;28;20496;-76
2022/02/16 07:40:44;;;;;;;19.15;6.50;;;;;;;9.95;100.00;99560.88;5080342;28;20396;-75
2022/02/16 07:43:09;;;;;;;17.60;5.00;;;;;;;10.01;100.00;99571.38;5100818;28;20019;-76
2022/02/16 07:45:35;;;;;;;14.70;5.75;;;;;;;10.04;100.00;99570.50;5086927;28;20058;-76
2022/02/16 07:48:00;;;;;;;16.33;5.80;;;;;;;10.03;100.00;99584.53;5081776;28;20368;-77
2022/02/16 07:50:29;;;;;;;21.83;5.97;;;;;;;10.05;100.00;99582.75;5084181;28;20055;-77
2022/02/16 07:52:55;;;;;;;17.48;4.97;;;;;;;10.05;100.00;99591.53;5089381;28;20032;-76
2022/02/16 07:55:21;;;;;;;23.15;5.35;;;;;;;10.10;100.00;99602.03;5082197;28;20055;-75
2022/02/16 07:57:47;;;;;;;17.63;5.32;;;;;;;10.13;100.00;99600.28;5074883;28;20115;-75
2022/02/16 08:00:13;;;;;;;28.02;6.30;;;;;;;10.15;100.00;99605.53;5082898;28;20154;-76
2022/02/16 08:02:38;;;;;;;20.50;5.43;;;;;;;10.18;100.00;99612.53;5105772;28;20027;-77
2022/02/16 08:05:04;;;;;;;23.65;6.30;;;;;;;10.21;100.00;99617.78;5080463;28;20024;-76
2022/02/16 08:07:29;;;;;;;35.72;7.88;;;;;;;10.17;100.00;99609.00;5081827;28;20036;-76
2022/02/16 08:09:55;;;;;;;27.80;8.25;;;;;;;10.15;100.00;99609.88;5073959;28;20407;-77
2022/02/16 08:12:20;;;;;;;33.28;8.48;;;;;;;10.19;100.00;99598.53;5068007;28;20081;-77
2022/02/16 08:14:47;;;;;;;30.88;7.47;;;;;;;10.24;100.00;99620.38;5071613;28;20142;-77
2022/02/16 08:17:13;;;;;;;33.20;8.13;;;;;;;10.20;100.00;99621.28;5062732;28;20106;-76
2022/02/16 08:19:38;;;;;;;33.28;6.80;;;;;;;10.21;100.00;99621.28;5077678;28;20058;-77
2022/02/16 08:22:04;;;;;;;37.33;7.65;;;;;;;10.24;100.00;99628.28;5085062;28;20073;-76
2022/02/16 08:24:30;;;;;;;35.88;8.00;;;;;;;10.24;100.00;99609.88;5085513;28;20036;-77
2022/02/16 08:26:56;;;;;;;35.13;7.68;;;;;;;10.21;100.00;99607.25;5067134;28;20024;-77
2022/02/16 08:29:24;;;;;;;31.10;7.40;;;;;;;10.30;100.00;99602.84;5079518;28;20040;-77
2022/02/16 08:31:49;;;;;;;42.10;7.03;;;;;;;10.30;100.00;99602.00;5088482;28;20035;-77
2022/02/16 08:34:15;;;;;;;29.98;6.65;;;;;;;10.36;100.00;99598.50;5094593;28;20479;-78
2022/02/16 08:36:41;;;;;;;34.08;8.05;;;;;;;10.35;100.00;99594.09;5103518;28;20028;-76
2022/02/16 08:39:07;;;;;;;50.72;9.07;;;;;;;10.41;100.00;99583.59;5095191;28;20075;-76
2022/02/16 08:41:33;;;;;;;24.13;6.65;;;;;;;10.40;100.00;99598.47;5073187;28;20400;-77
2022/02/16 08:43:58;;;;;;;35.95;7.10;;;;;;;10.39;100.00;99591.47;5065319;28;20107;-76
2022/02/16 08:46:24;;;;;;;30.98;6.30;;;;;;;10.47;100.00;99594.06;5083592;28;20024;-76
2022/02/16 08:48:49;;;;;;;41.55;6.53;;;;;;;10.46;100.00;99624.75;5086617;28;20123;-76
2022/02/16 08:51:15;;;;;;;30.80;6.10;;;;;;;10.50;100.00;99640.53;5093174;28;20028;-77
2022/02/16 08:53:40;;;;;;;49.13;6.72;;;;;;;10.52;100.00;99615.13;5094450;28;20055;-75
2022/02/16 08:56:06;;;;;;;40.78;6.35;;;;;;;10.59;100.00;99614.19;5059134;28;20915;-76
2022/02/16 08:58:32;;;;;;;38.13;6.38;;;;;;;10.65;100.00;99613.31;5093693;28;20084;-76
2022/02/16 09:00:58;;;;;;;31.90;5.68;;;;;;;10.68;100.00;99618.56;5089791;28;20111;-76
2022/02/16 09:03:25;;;;;;;31.90;4.80;;;;;;;10.68;100.00;99626.47;5078165;28;20032;-77
2022/02/16 09:05:50;;;;;;;25.98;4.65;;;;;;;10.76;100.00;99620.28;5062357;28;20491;-77
2022/02/16 09:08:17;;;;;;;41.13;5.18;;;;;;;10.75;100.00;99615.03;5067186;28;20024;-77
2022/02/16 09:10:43;;;;;;;44.20;5.60;;;;;;;10.83;100.00;99630.78;5098840;28;20495;-76
2022/02/16 09:13:08;;;;;;;21.63;4.00;;;;;;;10.91;100.00;99616.72;5093600;28;20055;-76
2022/02/16 09:15:34;;;;;;;33.20;5.50;;;;;;;10.95;100.00;99631.59;5073147;28;20024;-76
2022/02/16 09:17:59;;;;;;;36.33;5.85;;;;;;;10.98;100.00;99627.22;5070242;28;20028;-76
2022/02/16 09:20:25;;;;;;;38.10;5.28;;;;;;;11.08;100.00;99618.38;5085115;28;20024;-76
2022/02/16 09:22:51;;;;;;;32.85;5.57;;;;;;;11.16;100.00;99621.84;5092650;28;20548;-76
2022/02/16 09:25:17;;;;;;;32.75;5.38;;;;;;;11.13;100.00;99614.81;5066505;28;20024;-76
2022/02/16 09:27:43;;;;;;;36.28;6.30;;;;;;;11.12;100.00;99610.47;5096709;28;20157;-75
2022/02/16 09:30:10;;;;;;;24.17;4.30;;;;;;;11.14;100.00;99613.09;5092500;28;20073;-76
2022/02/16 09:32:35;;;;;;;30.83;4.88;;;;;;;11.34;100.00;99620.88;5087577;28;20120;-76
2022/02/16 09:35:01;;;;;;;25.98;4.10;;;;;;;11.41;100.00;99626.97;5074784;28;20165;-76
2022/02/16 09:37:27;;;;;;;32.53;5.43;;;;;;;11.37;100.00;99625.25;5094419;28;20130;-78
2022/02/16 09:39:53;;;;;;;36.67;5.72;;;;;;;11.36;100.00;99618.22;5062708;28;20465;-77
2022/02/16 09:42:19;;;;;;;25.17;4.35;;;;;;;11.30;100.00;99625.28;5077370;28;20065;-77
2022/02/16 09:44:57;;;;;;;30.00;4.60;;;;;;;11.32;100.00;99634.94;5079648;28;20027;-76
2022/02/16 09:47:23;;;;;;;27.05;4.47;;;;;;;11.31;100.00;99647.22;5065421;28;20033;-76
2022/02/16 09:49:48;;;;;;;36.42;4.80;;;;;;;11.36;100.00;99618.22;5075236;28;20035;-78
2022/02/16 09:52:14;;;;;;;25.30;4.43;;;;;;;11.44;100.00;99612.00;5066263;28;20511;-76
2022/02/16 09:54:39;;;;;;;26.83;5.78;;;;;;;11.50;100.00;99621.63;5070855;28;20491;-76
2022/02/16 09:57:05;;;;;;;38.55;4.70;;;;;;;11.51;100.00;99625.16;5064558;28;20157;-77
2022/02/16 09:59:31;;;;;;;22.58;4.53;;;;;;;11.48;100.00;99619.00;5079883;28;20032;-74
2022/02/16 10:02:02;;;;;;;17.33;3.45;;;;;;;11.45;100.00;99629.56;5091872;28;20052;-77
2022/02/16 10:04:32;;;;;;;24.27;4.28;;;;;;;11.43;100.00;99652.41;5063510;28;20036;-78
2022/02/16 10:06:58;;;;;;;32.60;4.82;;;;;;;11.46;100.00;99636.59;5065486;28;20036;-77
2022/02/16 10:09:32;;;;;;;31.30;4.30;;;;;;;11.43;100.00;99598.84;5086837;28;20081;-78
2022/02/16 10:11:59;;;;;;;26.75;4.68;;;;;;;11.47;100.00;99601.44;5066507;28;20468;-78
2022/02/16 10:14:39;;;;;;;24.95;4.22;;;;;;;11.36;100.00;99597.16;5077727;28;20024;-82
2022/02/16 10:17:27;;;;;;;25.40;4.78;;;;;;;11.37;100.00;99578.72;5072298;28;20032;-84
2022/02/16 10:19:54;;;;;;;29.63;5.20;;;;;;;11.41;100.00;99569.03;5093584;28;20030;-82
2022/02/16 10:22:22;;;;;;;23.67;4.55;;;;;;;11.38;100.00;99580.47;5078294;28;20032;-83
2022/02/16 10:24:49;;;;;;;19.77;4.40;;;;;;;11.45;100.00;99589.19;5084816;28;20033;-83
2022/02/16 10:27:15;;;;;;;24.60;3.97;;;;;;;11.49;100.00;99593.56;5069395;28;20031;-81
2022/02/16 10:29:42;;;;;;;25.75;4.95;;;;;;;11.43;100.00;99589.19;5083352;28;20020;-82
2022/02/16 10:32:09;;;;;;;24.42;4.07;;;;;;;11.47;100.00;99583.00;5079064;28;20035;-79
2022/02/16 10:34:55;;;;;;;24.38;3.90;;;;;;;11.48;100.00;99576.84;5083525;28;20013;-81
2022/02/16 10:37:29;;;;;;;26.02;4.15;;;;;;;11.54;100.00;99572.44;5074956;28;20028;-77
2022/02/16 10:39:58;;;;;;;;;;;;;;;11.55;100.00;99571.56;5064783;28;20040;-77
2022/02/16 10:42:24;;;;;;;19.25;3.58;;;;;;;11.61;100.00;99580.28;5060003;28;19908;-75
2022/02/16 10:45:06;;;;;;;18.10;3.03;;;;;;;11.61;100.00;99587.28;5076206;28;20464;-76
2022/02/16 10:47:54;;;;;;;24.65;3.65;;;;;;;11.62;100.00;99595.22;5076755;28;20054;-77
2022/02/16 10:50:21;;;;;;;23.95;3.92;;;;;;;11.64;100.00;99603.97;5078338;28;20021;-77
2022/02/16 10:52:53;;;;;;;19.95;2.83;;;;;;;11.60;100.00;99596.09;5058718;28;20048;-76
2022/02/16 10:55:33;;;;;;;19.90;3.78;;;;;;;11.65;100.00;99631.19;5068320;27;20039;-77
2022/02/16 10:57:59;;;;;;;23.70;3.72;;;;;;;11.59;100.00;99633.88;5089971;28;20479;-77
2022/02/16 11:00:29;;;;;;;33.00;4.05;;;;;;;11.62;100.00;99623.31;5095396;28;20020;-77
2022/02/16 11:02:55;;;;;;;25.70;4.93;;;;;;;11.57;100.00;99648.81;5088279;27;20027;-77
2022/02/16 11:05:21;;;;;;;23.65;4.20;;;;;;;11.66;100.00;99635.56;5092551;28;20029;-77
2022/02/16 11:07:47;;;;;;;24.98;4.70;;;;;;;11.66;100.00;99646.09;5088823;28;20023;-76
2022/02/16 11:10:13;;;;;;;13.35;3.00;;;;;;;11.60;100.00;99636.50;5088735;28;20421;-77
2022/02/16 11:12:39;;;;;;;23.52;4.32;;;;;;;11.62;100.00;99610.13;5077909;28;20030;-78
2022/02/16 11:15:05;;;;;;;22.08;3.55;;;;;;;11.64;100.00;99611.88;5129575;27;20022;-78
2022/02/16 11:17:30;;;;;;;26.02;4.07;;;;;;;11.66;100.00;99611.84;5100920;27;20057;-78